Lightning — WDG5277 — position and weather

sailwx.info

Track history (hours):
 
Tides and Currents Weather Stations Pressure Air Temp Water Temp Dewpoint Dewpoint Depression Visibility Wind Speed Wind Dir Waves Ship Positions

Lightning

Owner: Harley Marine Services, Inc, Seattle, WA. More information available from US FCC via Universal Licensing System and Coast Guard Vessel Documentation Center.

Last reported at 2018-Jun-24 11:00 UTC. Time now 2018-Jun-24 11:13 UTC.
Position N 40°40' W 074°05'.

Length 18 m; draft 2 m.

Type: Towing. MMSI: 367544970.

Date/timePositionNaut miles runAvg speedWind from/ knotsBaromVisibWave heightAir tempDewpointWater temp
2018-Jun-24 11:00N 40°40' W 074°05'0 0.0
2018-Jun-24 10:30N 40°40' W 074°05'0 0.0
2018-Jun-24 10:00N 40°40' W 074°05'0 0.0
2018-Jun-24 09:30N 40°40' W 074°05'0 0.0
2018-Jun-24 09:00N 40°40' W 074°05'0 0.0
2018-Jun-24 08:30N 40°40' W 074°05'0 0.0
2018-Jun-24 08:00N 40°40' W 074°05'0 0.0
2018-Jun-24 07:30N 40°40' W 074°05'0 0.0
2018-Jun-24 07:00N 40°40' W 074°05'0 0.0
2018-Jun-24 06:30N 40°40' W 074°05'0 0.0
2018-Jun-24 06:00N 40°40' W 074°05'1 1.1
2018-Jun-24 05:30N 40°40' W 074°04'1 2.8
2018-Jun-24 05:00N 40°41' W 074°03'0 0.1
2018-Jun-24 04:30N 40°41' W 074°03'0 0.0
2018-Jun-24 04:00N 40°41' W 074°03'0 0.0
2018-Jun-24 03:30N 40°41' W 074°03'0 0.0
2018-Jun-24 03:00N 40°41' W 074°03'0 0.0
2018-Jun-24 02:30N 40°41' W 074°03'2 4.0
2018-Jun-24 02:00N 40°40' W 074°00'0 0.6
2018-Jun-24 01:30N 40°40' W 074°00'0 0.0
2018-Jun-24 01:00N 40°40' W 074°00'0 0.0
2018-Jun-24 00:30N 40°40' W 074°00'0 0.0
2018-Jun-24 00:00N 40°40' W 074°00'0 0.0
2018-Jun-23 23:30N 40°40' W 074°00'0 0.0
2018-Jun-23 23:00N 40°40' W 074°00'0 0.0
2018-Jun-23 22:30N 40°40' W 074°00'0 0.0
2018-Jun-23 22:00N 40°40' W 074°00'0 0.0
2018-Jun-23 21:30N 40°40' W 074°00'0 0.0
2018-Jun-23 20:59N 40°40' W 074°00'0 0.0
2018-Jun-23 20:30N 40°40' W 074°00'1 1.4
2018-Jun-23 20:01N 40°40' W 074°01'2 3.5
2018-Jun-23 19:30N 40°41' W 074°03'3 5.2
2018-Jun-23 19:01N 40°38' W 074°03'0 0.3
2018-Jun-23 18:30N 40°38' W 074°03'0 0.0
2018-Jun-23 18:00N 40°38' W 074°03'0 0.0
2018-Jun-23 17:30N 40°38' W 074°03'0 0.0
2018-Jun-23 17:00N 40°38' W 074°03'0 0.0
2018-Jun-23 16:30N 40°38' W 074°03'0 0.0
2018-Jun-23 16:00N 40°38' W 074°03'0 0.0
2018-Jun-23 15:30N 40°38' W 074°03'1 1.3
2018-Jun-23 15:00N 40°38' W 074°04'0 0.0
2018-Jun-23 14:30N 40°38' W 074°04'0 0.0
2018-Jun-23 14:00N 40°38' W 074°04'0 0.0
2018-Jun-23 13:30N 40°38' W 074°04'0 0.0
2018-Jun-23 13:00N 40°38' W 074°04'0 0.2
2018-Jun-23 12:30N 40°38' W 074°04'0 0.0
2018-Jun-23 12:00N 40°38' W 074°04'0 0.0
2018-Jun-23 11:30N 40°38' W 074°04'0 0.0
2018-Jun-23 11:00N 40°38' W 074°04'0 0.1
2018-Jun-23 10:30N 40°38' W 074°04'0 0.2
2018-Jun-23 10:00N 40°38' W 074°04'0 0.2
2018-Jun-23 09:30N 40°38' W 074°04'0 0.1
2018-Jun-23 09:00N 40°38' W 074°04'0 0.1
2018-Jun-23 08:30N 40°38' W 074°04'0 0.0
2018-Jun-23 08:00N 40°38' W 074°04'0 0.1
2018-Jun-23 07:30N 40°38' W 074°04'0 0.0
2018-Jun-23 07:00N 40°38' W 074°04'0 0.0
2018-Jun-23 06:30N 40°38' W 074°04'0 0.1
2018-Jun-23 06:00N 40°38' W 074°04'0 0.0
2018-Jun-23 05:30N 40°38' W 074°04'1 1.3
2018-Jun-23 05:00N 40°38' W 074°04'0 0.1
2018-Jun-23 04:30N 40°38' W 074°04'1 1.6
2018-Jun-23 04:00N 40°39' W 074°04'2 4.1
2018-Jun-23 03:30N 40°39' W 074°07'0 0.0
2018-Jun-23 03:00N 40°39' W 074°07'3 6.2
2018-Jun-23 02:30N 40°40' W 074°03'0 0.6
2018-Jun-23 02:00N 40°40' W 074°03'3 6.1
2018-Jun-23 01:30N 40°39' W 074°07'2 3.7
2018-Jun-23 01:00N 40°40' W 074°09'0 0.0
2018-Jun-23 00:30N 40°40' W 074°09'0 0.0
2018-Jun-23 00:00N 40°40' W 074°09'0 0.0
2018-Jun-22 23:30N 40°40' W 074°09'0 0.0
2018-Jun-22 23:00N 40°40' W 074°09'0 0.0
2018-Jun-22 22:30N 40°40' W 074°09'0 0.0
2018-Jun-22 22:00N 40°40' W 074°09'0 0.0
2018-Jun-22 21:30N 40°40' W 074°09'0 0.0
2018-Jun-22 21:00N 40°40' W 074°09'1 1.2
2018-Jun-22 20:30N 40°40' W 074°08'1 2.4
2018-Jun-22 20:00N 40°41' W 074°09'0 0.4
2018-Jun-22 19:30N 40°41' W 074°10'0 0.0
2018-Jun-22 19:00N 40°41' W 074°10'0 0.0
2018-Jun-22 18:30N 40°41' W 074°10'0 0.0
2018-Jun-22 17:51N 40°41' W 074°10'0 0.0
2018-Jun-22 17:30N 40°41' W 074°10'0 0.0
2018-Jun-22 16:41N 40°41' W 074°10'1 3.3
2018-Jun-22 16:30N 40°41' W 074°09'1 0.6
2018-Jun-22 14:19N 40°40' W 074°09'0 0.0
2018-Jun-22 13:21N 40°40' W 074°09'0 0.0
2018-Jun-22 12:43N 40°40' W 074°09'0 0.0
2018-Jun-22 12:29N 40°40' W 074°09'0 0.0
2018-Jun-22 11:59N 40°40' W 074°09'0 0.0
2018-Jun-22 11:28N 40°40' W 074°09'0 0.0
2018-Jun-22 11:01N 40°40' W 074°09'0 0.0
2018-Jun-22 10:30N 40°40' W 074°09'0 0.4
2018-Jun-22 10:01N 40°39' W 074°09'1 1.3
2018-Jun-22 09:30N 40°39' W 074°09'2 4.4
2018-Jun-22 09:00N 40°39' W 074°06'1 1.5
2018-Jun-22 08:30N 40°39' W 074°05'0 0.0
2018-Jun-22 08:01N 40°39' W 074°05'0 0.0
2018-Jun-22 07:30N 40°39' W 074°05'0 0.0
2018-Jun-22 07:00N 40°39' W 074°05'0 0.0
2018-Jun-22 06:30N 40°39' W 074°05'0 0.0
2018-Jun-22 06:01N 40°39' W 074°05'0 0.0
2018-Jun-22 05:30N 40°39' W 074°05'0 0.0
2018-Jun-22 05:01N 40°39' W 074°05'0 0.0
2018-Jun-22 04:31N 40°39' W 074°05'0 0.0
2018-Jun-22 04:00N 40°39' W 074°05'0 0.0
2018-Jun-22 03:31N 40°39' W 074°05'0 0.0
2018-Jun-22 03:01N 40°39' W 074°05'0 0.0
2018-Jun-22 02:31N 40°39' W 074°05'0 0.0
2018-Jun-22 02:00N 40°39' W 074°05'0 0.0
2018-Jun-22 01:30N 40°39' W 074°05'0 0.0
2018-Jun-22 01:00N 40°39' W 074°05'0 0.0
2018-Jun-22 00:30N 40°39' W 074°05'0 0.0
2018-Jun-22 00:00N 40°39' W 074°05'0 0.0
2018-Jun-21 23:30N 40°39' W 074°05'0 0.0
2018-Jun-21 23:00N 40°39' W 074°05'0 0.0
2018-Jun-21 22:30N 40°39' W 074°05'0 0.0
2018-Jun-21 22:00N 40°39' W 074°05'0 0.0
2018-Jun-21 21:30N 40°39' W 074°05'0 0.0
2018-Jun-21 21:00N 40°39' W 074°05'0 0.0
2018-Jun-21 20:31N 40°39' W 074°05'1 2.4
2018-Jun-21 20:01N 40°40' W 074°04'1 2.8
2018-Jun-21 19:31N 40°41' W 074°03'3 5.2
2018-Jun-21 19:01N 40°39' W 074°05'3 7.0
2018-Jun-21 18:30N 40°39' W 074°10'0 0.7
2018-Jun-21 18:01N 40°39' W 074°10'4 7.4
2018-Jun-21 17:31N 40°39' W 074°05'1 2.0
2018-Jun-21 17:00N 40°38' W 074°04'3 5.2
2018-Jun-21 16:31N 40°41' W 074°03'2 3.3
2018-Jun-21 16:01N 40°40' W 074°04'2 3.7
2018-Jun-21 15:30N 40°39' W 074°07'1 1.0
2018-Jun-21 15:00N 40°39' W 074°06'0 0.1
2018-Jun-21 14:22N 40°39' W 074°06'0 0.0
2018-Jun-21 14:01N 40°39' W 074°06'0 0.0
2018-Jun-21 13:31N 40°39' W 074°06'1 2.3
2018-Jun-21 13:01N 40°39' W 074°04'1 1.3
2018-Jun-21 12:31N 40°38' W 074°04'0 0.0
2018-Jun-21 12:00N 40°38' W 074°04'0 0.0
2018-Jun-21 11:30N 40°38' W 074°04'0 0.1
2018-Jun-21 11:00N 40°38' W 074°04'0 0.0
2018-Jun-21 10:30N 40°38' W 074°04'0 0.0
2018-Jun-21 10:00N 40°38' W 074°04'0 0.4
2018-Jun-21 09:31N 40°38' W 074°04'3 5.1
2018-Jun-21 09:00N 40°41' W 074°03'0 0.1
2018-Jun-21 08:31N 40°41' W 074°03'0 0.2
2018-Jun-21 08:01N 40°41' W 074°03'0 0.0
2018-Jun-21 07:31N 40°41' W 074°03'0 0.0
2018-Jun-21 07:01N 40°41' W 074°03'0 0.1
2018-Jun-21 06:31N 40°41' W 074°03'0 0.0
2018-Jun-21 06:01N 40°41' W 074°03'0 0.2
2018-Jun-21 05:30N 40°41' W 074°03'0 0.0
2018-Jun-21 05:01N 40°41' W 074°03'0 0.0
2018-Jun-21 04:31N 40°41' W 074°03'2 4.1
2018-Jun-21 04:01N 40°40' W 074°00'0 0.5
2018-Jun-21 03:31N 40°40' W 074°00'0 0.1
2018-Jun-21 03:01N 40°40' W 074°00'0 0.0
2018-Jun-21 02:30N 40°40' W 074°00'0 0.0
2018-Jun-21 02:01N 40°40' W 074°00'0 0.0
2018-Jun-21 01:31N 40°40' W 074°00'0 0.0
2018-Jun-21 01:01N 40°40' W 074°00'0 0.0
2018-Jun-21 00:30N 40°40' W 074°00'0 0.0
2018-Jun-21 00:01N 40°40' W 074°00'0 0.0
2018-Jun-20 23:31N 40°40' W 074°00'0 0.0
2018-Jun-20 23:01N 40°40' W 074°00'0 0.0
2018-Jun-20 22:31N 40°40' W 074°00'0 0.0
2018-Jun-20 21:59N 40°40' W 074°00'0 0.0
2018-Jun-20 21:30N 40°40' W 074°00'0 0.0
2018-Jun-20 21:01N 40°40' W 074°00'0 0.0
2018-Jun-20 20:30N 40°40' W 074°00'0 0.0
2018-Jun-20 20:01N 40°40' W 074°00'0 0.0
2018-Jun-20 19:30N 40°40' W 074°00'0 0.0
2018-Jun-20 19:01N 40°40' W 074°00'0 0.0
2018-Jun-20 18:31N 40°40' W 074°00'0 0.0
2018-Jun-20 18:00N 40°40' W 074°00'1 2.3
2018-Jun-20 17:31N 40°40' W 074°01'1 1.5
2018-Jun-20 17:01N 40°40' W 074°01'2 3.2
2018-Jun-20 16:31N 40°41' W 074°02'0 0.5
2018-Jun-20 16:01N 40°41' W 074°03'2 4.5
2018-Jun-20 15:31N 40°40' W 074°00'0 0.0
2018-Jun-20 15:00N 40°40' W 074°00'0 0.0
2018-Jun-20 14:30N 40°40' W 074°00'0 0.0
2018-Jun-20 13:59N 40°40' W 074°00'0 0.0
2018-Jun-20 13:31N 40°40' W 074°00'0 0.0
2018-Jun-20 13:00N 40°40' W 074°00'0 0.0
2018-Jun-20 12:31N 40°40' W 074°00'0 0.1
2018-Jun-20 12:01N 40°40' W 074°00'0 0.1
2018-Jun-20 11:31N 40°40' W 074°00'0 0.1
2018-Jun-20 11:00N 40°40' W 074°00'0 0.0
2018-Jun-20 10:31N 40°40' W 074°00'0 0.0
2018-Jun-20 10:01N 40°40' W 074°00'0 0.0
2018-Jun-20 09:30N 40°40' W 074°00'0 0.0
2018-Jun-20 09:00N 40°40' W 074°00'0 0.0
2018-Jun-20 08:30N 40°40' W 074°00'0 0.0
2018-Jun-20 08:01N 40°40' W 074°00'0 0.0
2018-Jun-20 07:31N 40°40' W 074°00'0 0.0
2018-Jun-20 07:01N 40°40' W 074°00'0 0.0
2018-Jun-20 06:31N 40°40' W 074°00'0 0.0
2018-Jun-20 06:01N 40°40' W 074°00'1 1.6
2018-Jun-20 05:31N 40°40' W 074°01'4 7.5
2018-Jun-20 05:00N 40°39' W 074°06'4 7.4
2018-Jun-20 04:31N 40°39' W 074°11'1 1.7
2018-Jun-20 04:00N 40°38' W 074°12'0 0.0
2018-Jun-20 03:19N 40°38' W 074°12'0 0.0
2018-Jun-20 02:57N 40°38' W 074°12'0 0.0
2018-Jun-20 02:30N 40°38' W 074°12'3 6.9
2018-Jun-20 02:00N 40°39' W 074°07'4 7.7
2018-Jun-20 01:30N 40°40' W 074°03'0 0.5
2018-Jun-20 01:01N 40°40' W 074°03'2 4.3
2018-Jun-20 00:31N 40°38' W 074°04'0 0.0
2018-Jun-20 00:00N 40°38' W 074°04'0 0.1
2018-Jun-19 23:31N 40°38' W 074°04'0 0.0
2018-Jun-19 23:00N 40°38' W 074°04'0 0.1
2018-Jun-19 22:31N 40°38' W 074°04'0 0.0
2018-Jun-19 21:59N 40°38' W 074°04'0 0.0
2018-Jun-19 21:30N 40°38' W 074°04'0 0.0
2018-Jun-19 21:00N 40°38' W 074°04'0 0.0
2018-Jun-19 20:30N 40°38' W 074°04'0 0.0
2018-Jun-19 20:01N 40°38' W 074°04'0 0.2
2018-Jun-19 19:31N 40°38' W 074°04'0 0.3
2018-Jun-19 19:01N 40°38' W 074°04'0 0.0
2018-Jun-19 18:30N 40°38' W 074°04'2 4.0
2018-Jun-19 18:00N 40°40' W 074°03'0 0.9
2018-Jun-19 17:31N 40°41' W 074°03'3 5.1
2018-Jun-19 17:01N 40°38' W 074°03'1 1.1
2018-Jun-19 16:31N 40°38' W 074°04'0 0.0
2018-Jun-19 16:00N 40°38' W 074°04'0 0.2
2018-Jun-19 15:31N 40°38' W 074°04'2 4.9
2018-Jun-19 15:01N 40°40' W 074°03'0 1.0
2018-Jun-19 14:31N 40°41' W 074°03'0 0.1
2018-Jun-19 14:00N 40°41' W 074°03'0 0.0
2018-Jun-19 13:31N 40°41' W 074°03'0 0.0
2018-Jun-19 13:00N 40°41' W 074°03'0 0.0
2018-Jun-19 12:30N 40°41' W 074°03'0 0.0
2018-Jun-19 12:01N 40°41' W 074°03'0 0.0
2018-Jun-19 11:31N 40°41' W 074°03'0 0.0
2018-Jun-19 11:01N 40°41' W 074°03'0 0.0
2018-Jun-19 10:31N 40°41' W 074°03'0 0.0
2018-Jun-19 10:01N 40°41' W 074°03'0 0.0
2018-Jun-19 09:30N 40°41' W 074°03'0 0.0
2018-Jun-19 09:01N 40°41' W 074°03'0 0.0
2018-Jun-19 08:31N 40°41' W 074°03'0 0.1
2018-Jun-19 08:01N 40°41' W 074°03'0 0.1
2018-Jun-19 07:30N 40°41' W 074°03'0 0.1
2018-Jun-19 07:01N 40°41' W 074°03'0 0.0
2018-Jun-19 06:31N 40°41' W 074°03'0 0.0
2018-Jun-19 06:01N 40°41' W 074°03'0 0.0
2018-Jun-19 05:31N 40°41' W 074°03'0 0.0
2018-Jun-19 05:00N 40°41' W 074°03'0 0.0
2018-Jun-19 04:30N 40°41' W 074°03'0 0.1
2018-Jun-19 04:01N 40°41' W 074°03'0 0.1
2018-Jun-19 03:31N 40°41' W 074°03'0 0.1
2018-Jun-19 03:01N 40°41' W 074°03'0 0.1
2018-Jun-19 02:31N 40°41' W 074°03'2 4.6
2018-Jun-19 02:01N 40°40' W 074°00'1 1.2
2018-Jun-19 01:30N 40°40' W 074°01'1 2.8
2018-Jun-19 01:00N 40°39' W 074°02'1 2.1
2018-Jun-19 00:31N 40°40' W 074°01'2 3.6
2018-Jun-19 00:01N 40°41' W 074°03'0 0.1
2018-Jun-18 23:31N 40°41' W 074°03'0 0.2
2018-Jun-18 23:00N 40°41' W 074°03'2 3.2
2018-Jun-18 22:31N 40°40' W 074°04'4 7.7
2018-Jun-18 22:00N 40°39' W 074°09'1 2.5
2018-Jun-18 21:31N 40°40' W 074°09'0 0.1
2018-Jun-18 21:00N 40°40' W 074°09'0 0.0
2018-Jun-18 20:31N 40°40' W 074°09'2 3.4
2018-Jun-18 20:00N 40°38' W 074°07'0 0.0
2018-Jun-18 19:30N 40°38' W 074°07'1 2.3
2018-Jun-18 19:01N 40°39' W 074°09'1 2.5
2018-Jun-18 18:30N 40°40' W 074°09'1 1.5
2018-Jun-18 18:01N 40°39' W 074°09'3 5.5
2018-Jun-18 17:31N 40°39' W 074°05'3 5.8
2018-Jun-18 17:01N 40°41' W 074°02'1 2.4
2018-Jun-18 16:31N 40°41' W 074°01'0 0.0
2018-Jun-18 16:00N 40°41' W 074°01'0 0.0
2018-Jun-18 15:29N 40°41' W 074°01'0 0.0
2018-Jun-18 15:00N 40°41' W 074°01'0 0.0
2018-Jun-18 14:31N 40°41' W 074°01'0 0.0
2018-Jun-18 14:01N 40°41' W 074°01'0 0.0
2018-Jun-18 13:31N 40°41' W 074°01'0 0.0
2018-Jun-18 13:00N 40°41' W 074°01'0 0.0
2018-Jun-18 12:30N 40°41' W 074°01'0 0.0
2018-Jun-18 12:00N 40°41' W 074°01'1 2.7
2018-Jun-18 11:31N 40°40' W 074°02'3 5.2
2018-Jun-18 10:59N 40°38' W 074°04'0 0.0
2018-Jun-18 10:31N 40°38' W 074°04'0 0.0
2018-Jun-18 10:01N 40°38' W 074°04'0 0.0
2018-Jun-18 09:30N 40°38' W 074°04'0 0.0
2018-Jun-18 09:01N 40°38' W 074°04'0 0.0
2018-Jun-18 08:31N 40°38' W 074°04'0 0.0
2018-Jun-18 08:01N 40°38' W 074°04'0 0.0
2018-Jun-18 06:42N 40°38' W 074°04'0 0.3
2018-Jun-18 06:30N 40°38' W 074°04'0 0.5
2018-Jun-18 06:01N 40°38' W 074°04'0 0.2
2018-Jun-18 05:30N 40°38' W 074°04'0 0.4
2018-Jun-18 05:00N 40°38' W 074°03'1 1.5
2018-Jun-18 04:30N 40°37' W 074°03'1 1.5
2018-Jun-18 04:00N 40°38' W 074°04'2 4.0
2018-Jun-18 03:30N 40°39' W 074°06'0 0.4
2018-Jun-18 03:00N 40°39' W 074°06'0 0.0
2018-Jun-18 02:30N 40°39' W 074°06'1 1.5
2018-Jun-18 02:00N 40°38' W 074°07'0 0.0
2018-Jun-18 01:29N 40°38' W 074°07'0 0.0
2018-Jun-18 01:01N 40°38' W 074°07'0 0.0
2018-Jun-18 00:30N 40°38' W 074°07'0 0.0
2018-Jun-17 23:59N 40°38' W 074°07'0 0.0
2018-Jun-17 23:30N 40°38' W 074°07'0 0.0
2018-Jun-17 23:00N 40°38' W 074°07'1 1.4
2018-Jun-17 22:30N 40°39' W 074°07'1 1.3
2018-Jun-17 21:59N 40°38' W 074°07'0 0.0
2018-Jun-17 21:30N 40°38' W 074°07'0 0.0
2018-Jun-17 20:57N 40°38' W 074°07'0 0.0
2018-Jun-17 20:27N 40°38' W 074°07'0 0.0
2018-Jun-17 19:59N 40°38' W 074°07'0 0.0
2018-Jun-17 19:30N 40°38' W 074°07'0 0.0
2018-Jun-17 18:55N 40°38' W 074°07'0 0.0
2018-Jun-17 18:29N 40°38' W 074°07'0 0.0
2018-Jun-17 18:01N 40°38' W 074°07'0 0.0
2018-Jun-17 17:22N 40°38' W 074°07'0 0.0
2018-Jun-17 16:56N 40°38' W 074°07'0 0.0
2018-Jun-17 16:30N 40°38' W 074°07'0 0.0
2018-Jun-17 16:00N 40°38' W 074°07'1 1.4
2018-Jun-17 15:29N 40°39' W 074°06'2 4.8
2018-Jun-17 15:00N 40°40' W 074°04'1 2.7
2018-Jun-17 14:30N 40°41' W 074°03'1 2.4
2018-Jun-17 14:00N 40°40' W 074°01'1 2.4
2018-Jun-17 13:30N 40°40' W 074°00'0 0.0
2018-Jun-17 13:00N 40°40' W 074°00'0 0.0
2018-Jun-17 12:30N 40°40' W 074°00'0 0.0
2018-Jun-17 12:01N 40°40' W 074°00'0 0.0
2018-Jun-17 11:30N 40°40' W 074°00'0 0.0
2018-Jun-17 11:00N 40°40' W 074°00'0 0.0
2018-Jun-17 10:30N 40°40' W 074°00'0 0.0
2018-Jun-17 10:01N 40°40' W 074°00'0 0.0
2018-Jun-17 09:30N 40°40' W 074°00'0 0.0
2018-Jun-17 09:00N 40°40' W 074°00'0 0.0
2018-Jun-17 08:30N 40°40' W 074°00'0 0.0
2018-Jun-17 08:01N 40°40' W 074°00'0 0.0
2018-Jun-17 07:30N 40°40' W 074°00'0 0.0
2018-Jun-17 07:00N 40°40' W 074°00'0 0.0
2018-Jun-17 06:30N 40°40' W 074°00'0 0.0
2018-Jun-17 06:00N 40°40' W 074°00'0 0.0
2018-Jun-17 05:31N 40°40' W 074°00'0 0.0
2018-Jun-17 05:00N 40°40' W 074°00'0 0.0
2018-Jun-17 04:30N 40°40' W 074°00'0 0.0
2018-Jun-17 04:01N 40°40' W 074°00'0 0.0
2018-Jun-17 03:31N 40°40' W 074°00'0 0.0
2018-Jun-17 03:01N 40°40' W 074°00'0 0.0
2018-Jun-17 02:30N 40°40' W 074°00'0 0.3
2018-Jun-17 02:00N 40°40' W 074°00'0 0.2
2018-Jun-17 01:30N 40°40' W 074°00'0 0.1
2018-Jun-17 01:00N 40°40' W 074°00'0 0.2
2018-Jun-17 00:30N 40°40' W 074°00'0 0.0
2018-Jun-17 00:00N 40°40' W 074°00'0 0.0
2018-Jun-16 23:30N 40°40' W 074°00'0 0.0
2018-Jun-16 23:01N 40°40' W 074°00'0 0.0
2018-Jun-16 22:30N 40°40' W 074°00'0 0.0
2018-Jun-16 22:00N 40°40' W 074°00'0 0.0
2018-Jun-16 21:30N 40°40' W 074°00'0 0.0
2018-Jun-16 21:00N 40°40' W 074°00'0 0.0
2018-Jun-16 20:30N 40°40' W 074°00'0 0.0
2018-Jun-16 20:00N 40°40' W 074°00'0 0.1
2018-Jun-16 19:30N 40°40' W 074°00'2 4.4
2018-Jun-16 19:00N 40°41' W 074°03'0 0.0
2018-Jun-16 18:30N 40°41' W 074°03'0 0.0
2018-Jun-16 18:00N 40°41' W 074°03'0 0.9
2018-Jun-16 17:30N 40°40' W 074°03'2 4.0
2018-Jun-16 17:00N 40°38' W 074°03'0 0.2
2018-Jun-16 16:31N 40°38' W 074°03'0 0.0
2018-Jun-16 16:00N 40°38' W 074°03'0 0.0
2018-Jun-16 15:30N 40°38' W 074°03'0 0.0
2018-Jun-16 15:00N 40°38' W 074°03'0 0.0
2018-Jun-16 14:30N 40°38' W 074°03'0 0.0
2018-Jun-16 14:00N 40°38' W 074°03'0 0.1
2018-Jun-16 13:30N 40°38' W 074°03'0 0.1
2018-Jun-16 13:00N 40°38' W 074°03'0 0.2
2018-Jun-16 12:30N 40°38' W 074°03'0 0.1
2018-Jun-16 12:00N 40°38' W 074°03'2 4.0
2018-Jun-16 11:30N 40°39' W 074°05'3 5.4
2018-Jun-16 11:00N 40°39' W 074°09'3 6.1
2018-Jun-16 10:30N 40°41' W 074°08'0 0.4
2018-Jun-16 10:00N 40°42' W 074°08'0 0.0
2018-Jun-16 09:30N 40°42' W 074°08'0 0.0
2018-Jun-16 08:59N 40°42' W 074°08'0 0.0
2018-Jun-16 08:30N 40°42' W 074°08'0 0.0
2018-Jun-16 08:00N 40°42' W 074°08'0 0.0
2018-Jun-16 07:30N 40°42' W 074°08'0 0.0
2018-Jun-16 07:00N 40°42' W 074°08'0 0.0
2018-Jun-16 06:30N 40°42' W 074°08'0 0.0
2018-Jun-16 06:00N 40°42' W 074°08'0 0.0
2018-Jun-16 05:31N 40°42' W 074°08'0 0.0
2018-Jun-16 05:00N 40°42' W 074°08'0 0.0
2018-Jun-16 04:30N 40°42' W 074°08'0 0.0
2018-Jun-16 04:00N 40°42' W 074°08'0 0.0
2018-Jun-16 03:30N 40°42' W 074°08'0 0.0
2018-Jun-16 03:00N 40°42' W 074°08'3 5.9
2018-Jun-16 02:30N 40°39' W 074°09'2 3.9
2018-Jun-16 02:00N 40°39' W 074°06'0 0.0
2018-Jun-16 01:30N 40°39' W 074°06'2 3.6
2018-Jun-16 01:00N 40°39' W 074°09'1 2.4
2018-Jun-16 00:30N 40°40' W 074°08'0 0.0
2018-Jun-15 23:59N 40°40' W 074°08'0 0.0
2018-Jun-15 23:29N 40°40' W 074°08'0 0.0
2018-Jun-15 23:00N 40°40' W 074°08'0 0.0
2018-Jun-15 22:30N 40°40' W 074°08'0 0.0
2018-Jun-15 22:00N 40°40' W 074°08'0 0.0
2018-Jun-15 21:31N 40°40' W 074°08'0 0.0
2018-Jun-15 21:00N 40°40' W 074°08'0 0.7
2018-Jun-15 20:30N 40°40' W 074°08'2 3.5
2018-Jun-15 19:59N 40°38' W 074°07'0 0.0
2018-Jun-15 19:29N 40°38' W 074°07'0 0.0
2018-Jun-15 19:00N 40°38' W 074°07'0 0.0
2018-Jun-15 18:28N 40°38' W 074°07'0 0.0
2018-Jun-15 18:00N 40°38' W 074°07'0 0.0
2018-Jun-15 17:27N 40°38' W 074°07'0 0.0
2018-Jun-15 16:57N 40°38' W 074°07'0 0.0
2018-Jun-15 16:27N 40°38' W 074°07'0 0.0
2018-Jun-15 16:00N 40°38' W 074°07'0 0.0
2018-Jun-15 15:31N 40°38' W 074°07'0 0.0
2018-Jun-15 15:00N 40°38' W 074°07'0 0.0
2018-Jun-15 14:30N 40°38' W 074°07'0 0.0
2018-Jun-15 13:42N 40°38' W 074°07'0 0.0
2018-Jun-15 13:24N 40°38' W 074°07'0 0.0
2018-Jun-15 13:00N 40°38' W 074°07'0 0.0
2018-Jun-15 12:31N 40°38' W 074°07'0 0.0
2018-Jun-15 12:00N 40°39' W 074°07'1 2.3
2018-Jun-15 11:30N 40°39' W 074°06'2 3.9
2018-Jun-15 11:00N 40°39' W 074°08'1 2.5
2018-Jun-15 10:29N 40°40' W 074°09'0 0.5
2018-Jun-15 10:00N 40°40' W 074°09'0 0.9
2018-Jun-15 09:30N 40°39' W 074°09'3 5.4
2018-Jun-15 09:00N 40°39' W 074°05'3 5.5
2018-Jun-15 08:30N 40°41' W 074°03'0 0.3
2018-Jun-15 08:00N 40°41' W 074°03'0 0.0
2018-Jun-15 07:30N 40°41' W 074°03'0 0.0
2018-Jun-15 07:01N 40°41' W 074°03'0 0.0
2018-Jun-15 06:31N 40°41' W 074°03'0 0.0
2018-Jun-15 06:01N 40°41' W 074°03'0 0.0
2018-Jun-15 05:30N 40°41' W 074°03'0 0.0
2018-Jun-15 05:00N 40°41' W 074°03'0 0.0
2018-Jun-15 04:31N 40°41' W 074°03'0 0.1
2018-Jun-15 04:00N 40°41' W 074°03'0 0.1
2018-Jun-15 03:30N 40°41' W 074°03'0 0.1
2018-Jun-15 03:00N 40°41' W 074°03'0 0.1
2018-Jun-15 02:30N 40°41' W 074°03'0 0.0
2018-Jun-15 02:00N 40°41' W 074°03'0 0.0
2018-Jun-15 01:30N 40°41' W 074°03'2 3.9
2018-Jun-15 01:00N 40°39' W 074°04'2 3.4
2018-Jun-15 00:30N 40°39' W 074°06'3 5.3
2018-Jun-15 00:00N 40°39' W 074°03'2 4.8
2018-Jun-14 23:30N 40°40' W 074°00'0 0.0
2018-Jun-14 23:00N 40°40' W 074°00'0 0.0
2018-Jun-14 22:30N 40°40' W 074°00'0 0.0
2018-Jun-14 22:00N 40°40' W 074°00'0 0.0
2018-Jun-14 21:30N 40°40' W 074°00'0 0.0
2018-Jun-14 21:00N 40°40' W 074°00'0 0.0
2018-Jun-14 20:29N 40°40' W 074°00'0 0.0
2018-Jun-14 20:00N 40°40' W 074°00'0 0.1
2018-Jun-14 19:30N 40°40' W 074°00'0 0.1
2018-Jun-14 19:00N 40°40' W 074°00'0 0.0
2018-Jun-14 18:30N 40°40' W 074°00'0 0.0
2018-Jun-14 18:00N 40°40' W 074°00'0 0.0
2018-Jun-14 17:30N 40°40' W 074°00'0 0.0
2018-Jun-14 17:00N 40°40' W 074°00'0 0.0
2018-Jun-14 16:30N 40°40' W 074°00'0 0.0
2018-Jun-14 16:00N 40°40' W 074°00'0 0.0
2018-Jun-14 15:31N 40°40' W 074°00'0 0.0
2018-Jun-14 15:00N 40°40' W 074°00'0 0.4
2018-Jun-14 14:30N 40°40' W 074°00'0 0.2
2018-Jun-14 14:00N 40°40' W 074°00'0 0.0
2018-Jun-14 13:30N 40°40' W 074°00'0 0.0
2018-Jun-14 13:00N 40°40' W 074°00'0 0.0
2018-Jun-14 12:30N 40°40' W 074°00'3 5.5
2018-Jun-14 12:00N 40°38' W 074°03'1 1.1
2018-Jun-14 11:30N 40°38' W 074°04'0 0.1
2018-Jun-14 11:01N 40°38' W 074°04'  
Track history (hours):
 
Tides and Currents Weather Stations Pressure Air Temp Water Temp Dewpoint Dewpoint Depression Visibility Wind Speed Wind Dir Waves Ship Positions

Lightning

Owner: Harley Marine Services, Inc, Seattle, WA. More information available from US FCC via Universal Licensing System and Coast Guard Vessel Documentation Center.

Last reported at 2018-Jun-24 11:00 UTC. Time now 2018-Jun-24 11:13 UTC.
Position N 40°40' W 074°05'.

Length 18 m; draft 2 m.

Type: Towing. MMSI: 367544970.

Date/timePositionNaut miles runAvg speedWind from/ knotsBaromVisibWave heightAir tempDewpointWater temp
2018-Jun-24 11:00N 40°40' W 074°05'0 0.0
2018-Jun-24 10:30N 40°40' W 074°05'0 0.0
2018-Jun-24 10:00N 40°40' W 074°05'0 0.0
2018-Jun-24 09:30N 40°40' W 074°05'0 0.0
2018-Jun-24 09:00N 40°40' W 074°05'0 0.0
2018-Jun-24 08:30N 40°40' W 074°05'0 0.0
2018-Jun-24 08:00N 40°40' W 074°05'0 0.0
2018-Jun-24 07:30N 40°40' W 074°05'0 0.0
2018-Jun-24 07:00N 40°40' W 074°05'0 0.0
2018-Jun-24 06:30N 40°40' W 074°05'0 0.0
2018-Jun-24 06:00N 40°40' W 074°05'1 1.1
2018-Jun-24 05:30N 40°40' W 074°04'1 2.8
2018-Jun-24 05:00N 40°41' W 074°03'0 0.1
2018-Jun-24 04:30N 40°41' W 074°03'0 0.0
2018-Jun-24 04:00N 40°41' W 074°03'0 0.0
2018-Jun-24 03:30N 40°41' W 074°03'0 0.0
2018-Jun-24 03:00N 40°41' W 074°03'0 0.0
2018-Jun-24 02:30N 40°41' W 074°03'2 4.0
2018-Jun-24 02:00N 40°40' W 074°00'0 0.6
2018-Jun-24 01:30N 40°40' W 074°00'0 0.0
2018-Jun-24 01:00N 40°40' W 074°00'0 0.0
2018-Jun-24 00:30N 40°40' W 074°00'0 0.0
2018-Jun-24 00:00N 40°40' W 074°00'0 0.0
2018-Jun-23 23:30N 40°40' W 074°00'0 0.0
2018-Jun-23 23:00N 40°40' W 074°00'0 0.0
2018-Jun-23 22:30N 40°40' W 074°00'0 0.0
2018-Jun-23 22:00N 40°40' W 074°00'0 0.0
2018-Jun-23 21:30N 40°40' W 074°00'0 0.0
2018-Jun-23 20:59N 40°40' W 074°00'0 0.0
2018-Jun-23 20:30N 40°40' W 074°00'1 1.4
2018-Jun-23 20:01N 40°40' W 074°01'2 3.5
2018-Jun-23 19:30N 40°41' W 074°03'3 5.2
2018-Jun-23 19:01N 40°38' W 074°03'0 0.3
2018-Jun-23 18:30N 40°38' W 074°03'0 0.0
2018-Jun-23 18:00N 40°38' W 074°03'0 0.0
2018-Jun-23 17:30N 40°38' W 074°03'0 0.0
2018-Jun-23 17:00N 40°38' W 074°03'0 0.0
2018-Jun-23 16:30N 40°38' W 074°03'0 0.0
2018-Jun-23 16:00N 40°38' W 074°03'0 0.0
2018-Jun-23 15:30N 40°38' W 074°03'1 1.3
2018-Jun-23 15:00N 40°38' W 074°04'0 0.0
2018-Jun-23 14:30N 40°38' W 074°04'0 0.0
2018-Jun-23 14:00N 40°38' W 074°04'0 0.0
2018-Jun-23 13:30N 40°38' W 074°04'0 0.0
2018-Jun-23 13:00N 40°38' W 074°04'0 0.2
2018-Jun-23 12:30N 40°38' W 074°04'0 0.0
2018-Jun-23 12:00N 40°38' W 074°04'0 0.0
2018-Jun-23 11:30N 40°38' W 074°04'0 0.0
2018-Jun-23 11:00N 40°38' W 074°04'0 0.1
2018-Jun-23 10:30N 40°38' W 074°04'0 0.2
2018-Jun-23 10:00N 40°38' W 074°04'0 0.2
2018-Jun-23 09:30N 40°38' W 074°04'0 0.1
2018-Jun-23 09:00N 40°38' W 074°04'0 0.1
2018-Jun-23 08:30N 40°38' W 074°04'0 0.0
2018-Jun-23 08:00N 40°38' W 074°04'0 0.1
2018-Jun-23 07:30N 40°38' W 074°04'0 0.0
2018-Jun-23 07:00N 40°38' W 074°04'0 0.0
2018-Jun-23 06:30N 40°38' W 074°04'0 0.1
2018-Jun-23 06:00N 40°38' W 074°04'0 0.0
2018-Jun-23 05:30N 40°38' W 074°04'1 1.3
2018-Jun-23 05:00N 40°38' W 074°04'0 0.1
2018-Jun-23 04:30N 40°38' W 074°04'1 1.6
2018-Jun-23 04:00N 40°39' W 074°04'2 4.1
2018-Jun-23 03:30N 40°39' W 074°07'0 0.0
2018-Jun-23 03:00N 40°39' W 074°07'3 6.2
2018-Jun-23 02:30N 40°40' W 074°03'0 0.6
2018-Jun-23 02:00N 40°40' W 074°03'3 6.1
2018-Jun-23 01:30N 40°39' W 074°07'2 3.7
2018-Jun-23 01:00N 40°40' W 074°09'0 0.0
2018-Jun-23 00:30N 40°40' W 074°09'0 0.0
2018-Jun-23 00:00N 40°40' W 074°09'0 0.0
2018-Jun-22 23:30N 40°40' W 074°09'0 0.0
2018-Jun-22 23:00N 40°40' W 074°09'0 0.0
2018-Jun-22 22:30N 40°40' W 074°09'0 0.0
2018-Jun-22 22:00N 40°40' W 074°09'0 0.0
2018-Jun-22 21:30N 40°40' W 074°09'0 0.0
2018-Jun-22 21:00N 40°40' W 074°09'1 1.2
2018-Jun-22 20:30N 40°40' W 074°08'1 2.4
2018-Jun-22 20:00N 40°41' W 074°09'0 0.4
2018-Jun-22 19:30N 40°41' W 074°10'0 0.0
2018-Jun-22 19:00N 40°41' W 074°10'0 0.0
2018-Jun-22 18:30N 40°41' W 074°10'0 0.0
2018-Jun-22 17:51N 40°41' W 074°10'0 0.0
2018-Jun-22 17:30N 40°41' W 074°10'0 0.0
2018-Jun-22 16:41N 40°41' W 074°10'1 3.3
2018-Jun-22 16:30N 40°41' W 074°09'1 0.6
2018-Jun-22 14:19N 40°40' W 074°09'0 0.0
2018-Jun-22 13:21N 40°40' W 074°09'0 0.0
2018-Jun-22 12:43N 40°40' W 074°09'0 0.0
2018-Jun-22 12:29N 40°40' W 074°09'0 0.0
2018-Jun-22 11:59N 40°40' W 074°09'0 0.0
2018-Jun-22 11:28N 40°40' W 074°09'0 0.0
2018-Jun-22 11:01N 40°40' W 074°09'0 0.0
2018-Jun-22 10:30N 40°40' W 074°09'0 0.4
2018-Jun-22 10:01N 40°39' W 074°09'1 1.3
2018-Jun-22 09:30N 40°39' W 074°09'2 4.4
2018-Jun-22 09:00N 40°39' W 074°06'1 1.5
2018-Jun-22 08:30N 40°39' W 074°05'0 0.0
2018-Jun-22 08:01N 40°39' W 074°05'0 0.0
2018-Jun-22 07:30N 40°39' W 074°05'0 0.0
2018-Jun-22 07:00N 40°39' W 074°05'0 0.0
2018-Jun-22 06:30N 40°39' W 074°05'0 0.0
2018-Jun-22 06:01N 40°39' W 074°05'0 0.0
2018-Jun-22 05:30N 40°39' W 074°05'0 0.0
2018-Jun-22 05:01N 40°39' W 074°05'0 0.0
2018-Jun-22 04:31N 40°39' W 074°05'0 0.0
2018-Jun-22 04:00N 40°39' W 074°05'0 0.0
2018-Jun-22 03:31N 40°39' W 074°05'0 0.0
2018-Jun-22 03:01N 40°39' W 074°05'0 0.0
2018-Jun-22 02:31N 40°39' W 074°05'0 0.0
2018-Jun-22 02:00N 40°39' W 074°05'0 0.0
2018-Jun-22 01:30N 40°39' W 074°05'0 0.0
2018-Jun-22 01:00N 40°39' W 074°05'0 0.0
2018-Jun-22 00:30N 40°39' W 074°05'0 0.0
2018-Jun-22 00:00N 40°39' W 074°05'0 0.0
2018-Jun-21 23:30N 40°39' W 074°05'0 0.0
2018-Jun-21 23:00N 40°39' W 074°05'0 0.0
2018-Jun-21 22:30N 40°39' W 074°05'0 0.0
2018-Jun-21 22:00N 40°39' W 074°05'0 0.0
2018-Jun-21 21:30N 40°39' W 074°05'0 0.0
2018-Jun-21 21:00N 40°39' W 074°05'0 0.0
2018-Jun-21 20:31N 40°39' W 074°05'1 2.4
2018-Jun-21 20:01N 40°40' W 074°04'1 2.8
2018-Jun-21 19:31N 40°41' W 074°03'3 5.2
2018-Jun-21 19:01N 40°39' W 074°05'3 7.0
2018-Jun-21 18:30N 40°39' W 074°10'0 0.7
2018-Jun-21 18:01N 40°39' W 074°10'4 7.4
2018-Jun-21 17:31N 40°39' W 074°05'1 2.0
2018-Jun-21 17:00N 40°38' W 074°04'3 5.2
2018-Jun-21 16:31N 40°41' W 074°03'2 3.3
2018-Jun-21 16:01N 40°40' W 074°04'2 3.7
2018-Jun-21 15:30N 40°39' W 074°07'1 1.0
2018-Jun-21 15:00N 40°39' W 074°06'0 0.1
2018-Jun-21 14:22N 40°39' W 074°06'0 0.0
2018-Jun-21 14:01N 40°39' W 074°06'0 0.0
2018-Jun-21 13:31N 40°39' W 074°06'1 2.3
2018-Jun-21 13:01N 40°39' W 074°04'1 1.3
2018-Jun-21 12:31N 40°38' W 074°04'0 0.0
2018-Jun-21 12:00N 40°38' W 074°04'0 0.0
2018-Jun-21 11:30N 40°38' W 074°04'0 0.1
2018-Jun-21 11:00N 40°38' W 074°04'0 0.0
2018-Jun-21 10:30N 40°38' W 074°04'0 0.0
2018-Jun-21 10:00N 40°38' W 074°04'0 0.4
2018-Jun-21 09:31N 40°38' W 074°04'3 5.1
2018-Jun-21 09:00N 40°41' W 074°03'0 0.1
2018-Jun-21 08:31N 40°41' W 074°03'0 0.2
2018-Jun-21 08:01N 40°41' W 074°03'0 0.0
2018-Jun-21 07:31N 40°41' W 074°03'0 0.0
2018-Jun-21 07:01N 40°41' W 074°03'0 0.1
2018-Jun-21 06:31N 40°41' W 074°03'0 0.0
2018-Jun-21 06:01N 40°41' W 074°03'0 0.2
2018-Jun-21 05:30N 40°41' W 074°03'0 0.0
2018-Jun-21 05:01N 40°41' W 074°03'0 0.0
2018-Jun-21 04:31N 40°41' W 074°03'2 4.1
2018-Jun-21 04:01N 40°40' W 074°00'0 0.5
2018-Jun-21 03:31N 40°40' W 074°00'0 0.1
2018-Jun-21 03:01N 40°40' W 074°00'0 0.0
2018-Jun-21 02:30N 40°40' W 074°00'0 0.0
2018-Jun-21 02:01N 40°40' W 074°00'0 0.0
2018-Jun-21 01:31N 40°40' W 074°00'0 0.0
2018-Jun-21 01:01N 40°40' W 074°00'0 0.0
2018-Jun-21 00:30N 40°40' W 074°00'0 0.0
2018-Jun-21 00:01N 40°40' W 074°00'0 0.0
2018-Jun-20 23:31N 40°40' W 074°00'0 0.0
2018-Jun-20 23:01N 40°40' W 074°00'0 0.0
2018-Jun-20 22:31N 40°40' W 074°00'0 0.0
2018-Jun-20 21:59N 40°40' W 074°00'0 0.0
2018-Jun-20 21:30N 40°40' W 074°00'0 0.0
2018-Jun-20 21:01N 40°40' W 074°00'0 0.0
2018-Jun-20 20:30N 40°40' W 074°00'0 0.0
2018-Jun-20 20:01N 40°40' W 074°00'0 0.0
2018-Jun-20 19:30N 40°40' W 074°00'0 0.0
2018-Jun-20 19:01N 40°40' W 074°00'0 0.0
2018-Jun-20 18:31N 40°40' W 074°00'0 0.0
2018-Jun-20 18:00N 40°40' W 074°00'1 2.3
2018-Jun-20 17:31N 40°40' W 074°01'1 1.5
2018-Jun-20 17:01N 40°40' W 074°01'2 3.2
2018-Jun-20 16:31N 40°41' W 074°02'0 0.5
2018-Jun-20 16:01N 40°41' W 074°03'2 4.5
2018-Jun-20 15:31N 40°40' W 074°00'0 0.0
2018-Jun-20 15:00N 40°40' W 074°00'0 0.0
2018-Jun-20 14:30N 40°40' W 074°00'0 0.0
2018-Jun-20 13:59N 40°40' W 074°00'0 0.0
2018-Jun-20 13:31N 40°40' W 074°00'0 0.0
2018-Jun-20 13:00N 40°40' W 074°00'0 0.0
2018-Jun-20 12:31N 40°40' W 074°00'0 0.1
2018-Jun-20 12:01N 40°40' W 074°00'0 0.1
2018-Jun-20 11:31N 40°40' W 074°00'0 0.1
2018-Jun-20 11:00N 40°40' W 074°00'0 0.0
2018-Jun-20 10:31N 40°40' W 074°00'0 0.0
2018-Jun-20 10:01N 40°40' W 074°00'0 0.0
2018-Jun-20 09:30N 40°40' W 074°00'0 0.0
2018-Jun-20 09:00N 40°40' W 074°00'0 0.0
2018-Jun-20 08:30N 40°40' W 074°00'0 0.0
2018-Jun-20 08:01N 40°40' W 074°00'0 0.0
2018-Jun-20 07:31N 40°40' W 074°00'0 0.0
2018-Jun-20 07:01N 40°40' W 074°00'0 0.0
2018-Jun-20 06:31N 40°40' W 074°00'0 0.0
2018-Jun-20 06:01N 40°40' W 074°00'1 1.6
2018-Jun-20 05:31N 40°40' W 074°01'4 7.5
2018-Jun-20 05:00N 40°39' W 074°06'4 7.4
2018-Jun-20 04:31N 40°39' W 074°11'1 1.7
2018-Jun-20 04:00N 40°38' W 074°12'0 0.0
2018-Jun-20 03:19N 40°38' W 074°12'0 0.0
2018-Jun-20 02:57N 40°38' W 074°12'0 0.0
2018-Jun-20 02:30N 40°38' W 074°12'3 6.9
2018-Jun-20 02:00N 40°39' W 074°07'4 7.7
2018-Jun-20 01:30N 40°40' W 074°03'0 0.5
2018-Jun-20 01:01N 40°40' W 074°03'2 4.3
2018-Jun-20 00:31N 40°38' W 074°04'0 0.0
2018-Jun-20 00:00N 40°38' W 074°04'0 0.1
2018-Jun-19 23:31N 40°38' W 074°04'0 0.0
2018-Jun-19 23:00N 40°38' W 074°04'0 0.1
2018-Jun-19 22:31N 40°38' W 074°04'0 0.0
2018-Jun-19 21:59N 40°38' W 074°04'0 0.0
2018-Jun-19 21:30N 40°38' W 074°04'0 0.0
2018-Jun-19 21:00N 40°38' W 074°04'0 0.0
2018-Jun-19 20:30N 40°38' W 074°04'0 0.0
2018-Jun-19 20:01N 40°38' W 074°04'0 0.2
2018-Jun-19 19:31N 40°38' W 074°04'0 0.3
2018-Jun-19 19:01N 40°38' W 074°04'0 0.0
2018-Jun-19 18:30N 40°38' W 074°04'2 4.0
2018-Jun-19 18:00N 40°40' W 074°03'0 0.9
2018-Jun-19 17:31N 40°41' W 074°03'3 5.1
2018-Jun-19 17:01N 40°38' W 074°03'1 1.1
2018-Jun-19 16:31N 40°38' W 074°04'0 0.0
2018-Jun-19 16:00N 40°38' W 074°04'0 0.2
2018-Jun-19 15:31N 40°38' W 074°04'2 4.9
2018-Jun-19 15:01N 40°40' W 074°03'0 1.0
2018-Jun-19 14:31N 40°41' W 074°03'0 0.1
2018-Jun-19 14:00N 40°41' W 074°03'0 0.0
2018-Jun-19 13:31N 40°41' W 074°03'0 0.0
2018-Jun-19 13:00N 40°41' W 074°03'0 0.0
2018-Jun-19 12:30N 40°41' W 074°03'0 0.0
2018-Jun-19 12:01N 40°41' W 074°03'0 0.0
2018-Jun-19 11:31N 40°41' W 074°03'0 0.0
2018-Jun-19 11:01N 40°41' W 074°03'0 0.0
2018-Jun-19 10:31N 40°41' W 074°03'0 0.0
2018-Jun-19 10:01N 40°41' W 074°03'0 0.0
2018-Jun-19 09:30N 40°41' W 074°03'0 0.0
2018-Jun-19 09:01N 40°41' W 074°03'0 0.0
2018-Jun-19 08:31N 40°41' W 074°03'0 0.1
2018-Jun-19 08:01N 40°41' W 074°03'0 0.1
2018-Jun-19 07:30N 40°41' W 074°03'0 0.1
2018-Jun-19 07:01N 40°41' W 074°03'0 0.0
2018-Jun-19 06:31N 40°41' W 074°03'0 0.0
2018-Jun-19 06:01N 40°41' W 074°03'0 0.0
2018-Jun-19 05:31N 40°41' W 074°03'0 0.0
2018-Jun-19 05:00N 40°41' W 074°03'0 0.0
2018-Jun-19 04:30N 40°41' W 074°03'0 0.1
2018-Jun-19 04:01N 40°41' W 074°03'0 0.1
2018-Jun-19 03:31N 40°41' W 074°03'0 0.1
2018-Jun-19 03:01N 40°41' W 074°03'0 0.1
2018-Jun-19 02:31N 40°41' W 074°03'2 4.6
2018-Jun-19 02:01N 40°40' W 074°00'1 1.2
2018-Jun-19 01:30N 40°40' W 074°01'1 2.8
2018-Jun-19 01:00N 40°39' W 074°02'1 2.1
2018-Jun-19 00:31N 40°40' W 074°01'2 3.6
2018-Jun-19 00:01N 40°41' W 074°03'0 0.1
2018-Jun-18 23:31N 40°41' W 074°03'0 0.2
2018-Jun-18 23:00N 40°41' W 074°03'2 3.2
2018-Jun-18 22:31N 40°40' W 074°04'4 7.7
2018-Jun-18 22:00N 40°39' W 074°09'1 2.5
2018-Jun-18 21:31N 40°40' W 074°09'0 0.1
2018-Jun-18 21:00N 40°40' W 074°09'0 0.0
2018-Jun-18 20:31N 40°40' W 074°09'2 3.4
2018-Jun-18 20:00N 40°38' W 074°07'0 0.0
2018-Jun-18 19:30N 40°38' W 074°07'1 2.3
2018-Jun-18 19:01N 40°39' W 074°09'1 2.5
2018-Jun-18 18:30N 40°40' W 074°09'1 1.5
2018-Jun-18 18:01N 40°39' W 074°09'3 5.5
2018-Jun-18 17:31N 40°39' W 074°05'3 5.8
2018-Jun-18 17:01N 40°41' W 074°02'1 2.4
2018-Jun-18 16:31N 40°41' W 074°01'0 0.0
2018-Jun-18 16:00N 40°41' W 074°01'0 0.0
2018-Jun-18 15:29N 40°41' W 074°01'0 0.0
2018-Jun-18 15:00N 40°41' W 074°01'0 0.0
2018-Jun-18 14:31N 40°41' W 074°01'0 0.0
2018-Jun-18 14:01N 40°41' W 074°01'0 0.0
2018-Jun-18 13:31N 40°41' W 074°01'0 0.0
2018-Jun-18 13:00N 40°41' W 074°01'0 0.0
2018-Jun-18 12:30N 40°41' W 074°01'0 0.0
2018-Jun-18 12:00N 40°41' W 074°01'1 2.7
2018-Jun-18 11:31N 40°40' W 074°02'3 5.2
2018-Jun-18 10:59N 40°38' W 074°04'0 0.0
2018-Jun-18 10:31N 40°38' W 074°04'0 0.0
2018-Jun-18 10:01N 40°38' W 074°04'0 0.0
2018-Jun-18 09:30N 40°38' W 074°04'0 0.0
2018-Jun-18 09:01N 40°38' W 074°04'0 0.0
2018-Jun-18 08:31N 40°38' W 074°04'0 0.0
2018-Jun-18 08:01N 40°38' W 074°04'0 0.0
2018-Jun-18 06:42N 40°38' W 074°04'0 0.3
2018-Jun-18 06:30N 40°38' W 074°04'0 0.5
2018-Jun-18 06:01N 40°38' W 074°04'0 0.2
2018-Jun-18 05:30N 40°38' W 074°04'0 0.4
2018-Jun-18 05:00N 40°38' W 074°03'1 1.5
2018-Jun-18 04:30N 40°37' W 074°03'1 1.5
2018-Jun-18 04:00N 40°38' W 074°04'2 4.0
2018-Jun-18 03:30N 40°39' W 074°06'0 0.4
2018-Jun-18 03:00N 40°39' W 074°06'0 0.0
2018-Jun-18 02:30N 40°39' W 074°06'1 1.5
2018-Jun-18 02:00N 40°38' W 074°07'0 0.0
2018-Jun-18 01:29N 40°38' W 074°07'0 0.0
2018-Jun-18 01:01N 40°38' W 074°07'0 0.0
2018-Jun-18 00:30N 40°38' W 074°07'0 0.0
2018-Jun-17 23:59N 40°38' W 074°07'0 0.0
2018-Jun-17 23:30N 40°38' W 074°07'0 0.0
2018-Jun-17 23:00N 40°38' W 074°07'1 1.4
2018-Jun-17 22:30N 40°39' W 074°07'1 1.3
2018-Jun-17 21:59N 40°38' W 074°07'0 0.0
2018-Jun-17 21:30N 40°38' W 074°07'0 0.0
2018-Jun-17 20:57N 40°38' W 074°07'0 0.0
2018-Jun-17 20:27N 40°38' W 074°07'0 0.0
2018-Jun-17 19:59N 40°38' W 074°07'0 0.0
2018-Jun-17 19:30N 40°38' W 074°07'0 0.0
2018-Jun-17 18:55N 40°38' W 074°07'0 0.0
2018-Jun-17 18:29N 40°38' W 074°07'0 0.0
2018-Jun-17 18:01N 40°38' W 074°07'0 0.0
2018-Jun-17 17:22N 40°38' W 074°07'0 0.0
2018-Jun-17 16:56N 40°38' W 074°07'0 0.0
2018-Jun-17 16:30N 40°38' W 074°07'0 0.0
2018-Jun-17 16:00N 40°38' W 074°07'1 1.4
2018-Jun-17 15:29N 40°39' W 074°06'2 4.8
2018-Jun-17 15:00N 40°40' W 074°04'1 2.7
2018-Jun-17 14:30N 40°41' W 074°03'1 2.4
2018-Jun-17 14:00N 40°40' W 074°01'1 2.4
2018-Jun-17 13:30N 40°40' W 074°00'0 0.0
2018-Jun-17 13:00N 40°40' W 074°00'0 0.0
2018-Jun-17 12:30N 40°40' W 074°00'0 0.0
2018-Jun-17 12:01N 40°40' W 074°00'0 0.0
2018-Jun-17 11:30N 40°40' W 074°00'0 0.0
2018-Jun-17 11:00N 40°40' W 074°00'0 0.0
2018-Jun-17 10:30N 40°40' W 074°00'0 0.0
2018-Jun-17 10:01N 40°40' W 074°00'0 0.0
2018-Jun-17 09:30N 40°40' W 074°00'0 0.0
2018-Jun-17 09:00N 40°40' W 074°00'0 0.0
2018-Jun-17 08:30N 40°40' W 074°00'0 0.0
2018-Jun-17 08:01N 40°40' W 074°00'0 0.0
2018-Jun-17 07:30N 40°40' W 074°00'0 0.0
2018-Jun-17 07:00N 40°40' W 074°00'0 0.0
2018-Jun-17 06:30N 40°40' W 074°00'0 0.0
2018-Jun-17 06:00N 40°40' W 074°00'0 0.0
2018-Jun-17 05:31N 40°40' W 074°00'0 0.0
2018-Jun-17 05:00N 40°40' W 074°00'0 0.0
2018-Jun-17 04:30N 40°40' W 074°00'0 0.0
2018-Jun-17 04:01N 40°40' W 074°00'0 0.0
2018-Jun-17 03:31N 40°40' W 074°00'0 0.0
2018-Jun-17 03:01N 40°40' W 074°00'0 0.0
2018-Jun-17 02:30N 40°40' W 074°00'0 0.3
2018-Jun-17 02:00N 40°40' W 074°00'0 0.2
2018-Jun-17 01:30N 40°40' W 074°00'0 0.1
2018-Jun-17 01:00N 40°40' W 074°00'0 0.2
2018-Jun-17 00:30N 40°40' W 074°00'0 0.0
2018-Jun-17 00:00N 40°40' W 074°00'0 0.0
2018-Jun-16 23:30N 40°40' W 074°00'0 0.0
2018-Jun-16 23:01N 40°40' W 074°00'0 0.0
2018-Jun-16 22:30N 40°40' W 074°00'0 0.0
2018-Jun-16 22:00N 40°40' W 074°00'0 0.0
2018-Jun-16 21:30N 40°40' W 074°00'0 0.0
2018-Jun-16 21:00N 40°40' W 074°00'0 0.0
2018-Jun-16 20:30N 40°40' W 074°00'0 0.0
2018-Jun-16 20:00N 40°40' W 074°00'0 0.1
2018-Jun-16 19:30N 40°40' W 074°00'2 4.4
2018-Jun-16 19:00N 40°41' W 074°03'0 0.0
2018-Jun-16 18:30N 40°41' W 074°03'0 0.0
2018-Jun-16 18:00N 40°41' W 074°03'0 0.9
2018-Jun-16 17:30N 40°40' W 074°03'2 4.0
2018-Jun-16 17:00N 40°38' W 074°03'0 0.2
2018-Jun-16 16:31N 40°38' W 074°03'0 0.0
2018-Jun-16 16:00N 40°38' W 074°03'0 0.0
2018-Jun-16 15:30N 40°38' W 074°03'0 0.0
2018-Jun-16 15:00N 40°38' W 074°03'0 0.0
2018-Jun-16 14:30N 40°38' W 074°03'0 0.0
2018-Jun-16 14:00N 40°38' W 074°03'0 0.1
2018-Jun-16 13:30N 40°38' W 074°03'0 0.1
2018-Jun-16 13:00N 40°38' W 074°03'0 0.2
2018-Jun-16 12:30N 40°38' W 074°03'0 0.1
2018-Jun-16 12:00N 40°38' W 074°03'2 4.0
2018-Jun-16 11:30N 40°39' W 074°05'3 5.4
2018-Jun-16 11:00N 40°39' W 074°09'3 6.1
2018-Jun-16 10:30N 40°41' W 074°08'0 0.4
2018-Jun-16 10:00N 40°42' W 074°08'0 0.0
2018-Jun-16 09:30N 40°42' W 074°08'0 0.0
2018-Jun-16 08:59N 40°42' W 074°08'0 0.0
2018-Jun-16 08:30N 40°42' W 074°08'0 0.0
2018-Jun-16 08:00N 40°42' W 074°08'0 0.0
2018-Jun-16 07:30N 40°42' W 074°08'0 0.0
2018-Jun-16 07:00N 40°42' W 074°08'0 0.0
2018-Jun-16 06:30N 40°42' W 074°08'0 0.0
2018-Jun-16 06:00N 40°42' W 074°08'0 0.0
2018-Jun-16 05:31N 40°42' W 074°08'0 0.0
2018-Jun-16 05:00N 40°42' W 074°08'0 0.0
2018-Jun-16 04:30N 40°42' W 074°08'0 0.0
2018-Jun-16 04:00N 40°42' W 074°08'0 0.0
2018-Jun-16 03:30N 40°42' W 074°08'0 0.0
2018-Jun-16 03:00N 40°42' W 074°08'3 5.9
2018-Jun-16 02:30N 40°39' W 074°09'2 3.9
2018-Jun-16 02:00N 40°39' W 074°06'0 0.0
2018-Jun-16 01:30N 40°39' W 074°06'2 3.6
2018-Jun-16 01:00N 40°39' W 074°09'1 2.4
2018-Jun-16 00:30N 40°40' W 074°08'0 0.0
2018-Jun-15 23:59N 40°40' W 074°08'0 0.0
2018-Jun-15 23:29N 40°40' W 074°08'0 0.0
2018-Jun-15 23:00N 40°40' W 074°08'0 0.0
2018-Jun-15 22:30N 40°40' W 074°08'0 0.0
2018-Jun-15 22:00N 40°40' W 074°08'0 0.0
2018-Jun-15 21:31N 40°40' W 074°08'0 0.0
2018-Jun-15 21:00N 40°40' W 074°08'0 0.7
2018-Jun-15 20:30N 40°40' W 074°08'2 3.5
2018-Jun-15 19:59N 40°38' W 074°07'0 0.0
2018-Jun-15 19:29N 40°38' W 074°07'0 0.0
2018-Jun-15 19:00N 40°38' W 074°07'0 0.0
2018-Jun-15 18:28N 40°38' W 074°07'0 0.0
2018-Jun-15 18:00N 40°38' W 074°07'0 0.0
2018-Jun-15 17:27N 40°38' W 074°07'0 0.0
2018-Jun-15 16:57N 40°38' W 074°07'0 0.0
2018-Jun-15 16:27N 40°38' W 074°07'0 0.0
2018-Jun-15 16:00N 40°38' W 074°07'0 0.0
2018-Jun-15 15:31N 40°38' W 074°07'0 0.0
2018-Jun-15 15:00N 40°38' W 074°07'0 0.0
2018-Jun-15 14:30N 40°38' W 074°07'0 0.0
2018-Jun-15 13:42N 40°38' W 074°07'0 0.0
2018-Jun-15 13:24N 40°38' W 074°07'0 0.0
2018-Jun-15 13:00N 40°38' W 074°07'0 0.0
2018-Jun-15 12:31N 40°38' W 074°07'0 0.0
2018-Jun-15 12:00N 40°39' W 074°07'1 2.3
2018-Jun-15 11:30N 40°39' W 074°06'2 3.9
2018-Jun-15 11:00N 40°39' W 074°08'1 2.5
2018-Jun-15 10:29N 40°40' W 074°09'0 0.5
2018-Jun-15 10:00N 40°40' W 074°09'0 0.9
2018-Jun-15 09:30N 40°39' W 074°09'3 5.4
2018-Jun-15 09:00N 40°39' W 074°05'3 5.5
2018-Jun-15 08:30N 40°41' W 074°03'0 0.3
2018-Jun-15 08:00N 40°41' W 074°03'0 0.0
2018-Jun-15 07:30N 40°41' W 074°03'0 0.0
2018-Jun-15 07:01N 40°41' W 074°03'0 0.0
2018-Jun-15 06:31N 40°41' W 074°03'0 0.0
2018-Jun-15 06:01N 40°41' W 074°03'0 0.0
2018-Jun-15 05:30N 40°41' W 074°03'0 0.0
2018-Jun-15 05:00N 40°41' W 074°03'0 0.0
2018-Jun-15 04:31N 40°41' W 074°03'0 0.1
2018-Jun-15 04:00N 40°41' W 074°03'0 0.1
2018-Jun-15 03:30N 40°41' W 074°03'0 0.1
2018-Jun-15 03:00N 40°41' W 074°03'0 0.1
2018-Jun-15 02:30N 40°41' W 074°03'0 0.0
2018-Jun-15 02:00N 40°41' W 074°03'0 0.0
2018-Jun-15 01:30N 40°41' W 074°03'2 3.9
2018-Jun-15 01:00N 40°39' W 074°04'2 3.4
2018-Jun-15 00:30N 40°39' W 074°06'3 5.3
2018-Jun-15 00:00N 40°39' W 074°03'2 4.8
2018-Jun-14 23:30N 40°40' W 074°00'0 0.0
2018-Jun-14 23:00N 40°40' W 074°00'0 0.0
2018-Jun-14 22:30N 40°40' W 074°00'0 0.0
2018-Jun-14 22:00N 40°40' W 074°00'0 0.0
2018-Jun-14 21:30N 40°40' W 074°00'0 0.0
2018-Jun-14 21:00N 40°40' W 074°00'0 0.0
2018-Jun-14 20:29N 40°40' W 074°00'0 0.0
2018-Jun-14 20:00N 40°40' W 074°00'0 0.1
2018-Jun-14 19:30N 40°40' W 074°00'0 0.1
2018-Jun-14 19:00N 40°40' W 074°00'0 0.0
2018-Jun-14 18:30N 40°40' W 074°00'0 0.0
2018-Jun-14 18:00N 40°40' W 074°00'0 0.0
2018-Jun-14 17:30N 40°40' W 074°00'0 0.0
2018-Jun-14 17:00N 40°40' W 074°00'0 0.0
2018-Jun-14 16:30N 40°40' W 074°00'0 0.0
2018-Jun-14 16:00N 40°40' W 074°00'0 0.0
2018-Jun-14 15:31N 40°40' W 074°00'0 0.0
2018-Jun-14 15:00N 40°40' W 074°00'0 0.4
2018-Jun-14 14:30N 40°40' W 074°00'0 0.2
2018-Jun-14 14:00N 40°40' W 074°00'0 0.0
2018-Jun-14 13:30N 40°40' W 074°00'0 0.0
2018-Jun-14 13:00N 40°40' W 074°00'0 0.0
2018-Jun-14 12:30N 40°40' W 074°00'3 5.5
2018-Jun-14 12:00N 40°38' W 074°03'1 1.1
2018-Jun-14 11:30N 40°38' W 074°04'0 0.1
2018-Jun-14 11:01N 40°38' W 074°04'  

Dump ship's entire track history